sensor_id;sensor_type;location;lat;lon;timestamp;pressure;altitude;pressure_sealevel;temperature;humidity
49627;BME280;35527;54.616;39.786;2023-05-10T00:01:52;100876.13;;;8.28;49.98
49627;BME280;35527;54.616;39.786;2023-05-10T00:04:55;100876.06;;;8.31;50.20
49627;BME280;35527;54.616;39.786;2023-05-10T00:08:04;100847.91;;;8.16;50.28
49627;BME280;35527;54.616;39.786;2023-05-10T00:11:07;100853.91;;;8.15;50.37
49627;BME280;35527;54.616;39.786;2023-05-10T00:14:16;100865.03;;;8.20;50.69
49627;BME280;35527;54.616;39.786;2023-05-10T00:17:20;100858.16;;;8.20;50.94
49627;BME280;35527;54.616;39.786;2023-05-10T00:20:26;100854.72;;;8.20;50.66
49627;BME280;35527;54.616;39.786;2023-05-10T00:23:28;100852.19;;;8.17;51.73
49627;BME280;35527;54.616;39.786;2023-05-10T00:26:33;100859.06;;;8.16;51.04
49627;BME280;35527;54.616;39.786;2023-05-10T00:29:37;100818.94;;;7.92;51.21
49627;BME280;35527;54.616;39.786;2023-05-10T00:32:41;100871.84;;;8.25;51.24
49627;BME280;35527;54.616;39.786;2023-05-10T00:35:45;100871.94;;;8.19;50.99
49627;BME280;35527;54.616;39.786;2023-05-10T00:38:48;100866.00;;;8.11;51.46
49627;BME280;35527;54.616;39.786;2023-05-10T00:41:55;100879.66;;;8.19;51.64
49627;BME280;35527;54.616;39.786;2023-05-10T00:45:01;100855.69;;;8.11;51.76
49627;BME280;35527;54.616;39.786;2023-05-10T00:48:05;100861.66;;;8.16;52.02
49627;BME280;35527;54.616;39.786;2023-05-10T00:51:08;100860.00;;;8.10;52.20
49627;BME280;35527;54.616;39.786;2023-05-10T00:54:11;100867.56;;;8.23;52.63
49627;BME280;35527;54.616;39.786;2023-05-10T00:57:21;100884.75;;;8.25;52.69
49627;BME280;35527;54.616;39.786;2023-05-10T01:00:24;100864.34;;;8.07;53.16
49627;BME280;35527;54.616;39.786;2023-05-10T01:03:28;100875.31;;;8.23;53.24
49627;BME280;35527;54.616;39.786;2023-05-10T01:06:35;100878.72;;;8.25;52.85
49627;BME280;35527;54.616;39.786;2023-05-10T01:09:46;100872.69;;;8.27;52.67
49627;BME280;35527;54.616;39.786;2023-05-10T01:12:49;100874.44;;;8.24;52.41
49627;BME280;35527;54.616;39.786;2023-05-10T01:15:52;100874.44;;;8.24;52.19
49627;BME280;35527;54.616;39.786;2023-05-10T01:18:55;100860.81;;;8.16;52.26
49627;BME280;35527;54.616;39.786;2023-05-10T01:35:26;100876.09;;;8.29;52.77
49627;BME280;35527;54.616;39.786;2023-05-10T01:38:44;100871.81;;;8.27;53.25
49627;BME280;35527;54.616;39.786;2023-05-10T01:42:03;100876.13;;;8.28;53.13
49627;BME280;35527;54.616;39.786;2023-05-10T01:45:21;100868.44;;;8.23;53.33
49627;BME280;35527;54.616;39.786;2023-05-10T01:48:31;100842.81;;;8.09;52.69
49627;BME280;35527;54.616;39.786;2023-05-10T01:51:41;100866.66;;;8.30;52.16
49627;BME280;35527;54.616;39.786;2023-05-10T01:55:00;100879.41;;;8.38;52.19
49627;BME280;35527;54.616;39.786;2023-05-10T01:58:08;100869.09;;;8.41;51.89
49627;BME280;35527;54.616;39.786;2023-05-10T02:01:20;100872.50;;;8.44;51.33
49627;BME280;35527;54.616;39.786;2023-05-10T02:04:26;100862.25;;;8.40;50.81
49627;BME280;35527;54.616;39.786;2023-05-10T02:07:31;100856.16;;;8.44;50.22
49627;BME280;35527;54.616;39.786;2023-05-10T02:10:37;100868.03;;;8.55;50.66
49627;BME280;35527;54.616;39.786;2023-05-10T02:13:46;100869.72;;;8.60;50.54
49627;BME280;35527;54.616;39.786;2023-05-10T02:16:51;100868.00;;;8.59;51.42
49627;BME280;35527;54.616;39.786;2023-05-10T02:19:57;100857.69;;;8.59;50.78
49627;BME280;35527;54.616;39.786;2023-05-10T02:23:02;100852.50;;;8.60;50.68
49627;BME280;35527;54.616;39.786;2023-05-10T02:26:08;100872.97;;;8.72;50.87
49627;BME280;35527;54.616;39.786;2023-05-10T02:29:12;100867.78;;;8.72;51.76
49627;BME280;35527;54.616;39.786;2023-05-10T02:32:17;100869.44;;;8.79;51.18
49627;BME280;35527;54.616;39.786;2023-05-10T02:35:22;100854.81;;;8.78;51.29
49627;BME280;35527;54.616;39.786;2023-05-10T02:38:28;100859.94;;;8.80;51.62
49627;BME280;35527;54.616;39.786;2023-05-10T02:41:36;100854.59;;;8.92;51.94
49627;BME280;35527;54.616;39.786;2023-05-10T02:44:53;100854.63;;;8.89;52.77
49627;BME280;35527;54.616;39.786;2023-05-10T02:48:01;100863.91;;;9.01;53.08
49627;BME280;35527;54.616;39.786;2023-05-10T02:51:07;100837.34;;;8.94;52.73
49627;BME280;35527;54.616;39.786;2023-05-10T02:54:26;100847.59;;;9.00;52.79
49627;BME280;35527;54.616;39.786;2023-05-10T02:57:33;100847.56;;;9.02;52.18
49627;BME280;35527;54.616;39.786;2023-05-10T03:00:37;100836.41;;;8.98;52.21
49627;BME280;35527;54.616;39.786;2023-05-10T03:03:40;100856.84;;;9.14;51.19
49627;BME280;35527;54.616;39.786;2023-05-10T03:06:45;100865.38;;;9.19;52.04
49627;BME280;35527;54.616;39.786;2023-05-10T03:09:49;100851.78;;;9.06;50.61
49627;BME280;35527;54.616;39.786;2023-05-10T03:16:13;100860.16;;;9.20;51.46
49627;BME280;35527;54.616;39.786;2023-05-10T03:19:27;100858.38;;;9.24;50.78
49627;BME280;35527;54.616;39.786;2023-05-10T03:22:41;100838.66;;;9.21;50.61
49627;BME280;35527;54.616;39.786;2023-05-10T03:25:48;100864.22;;;9.35;50.19
49627;BME280;35527;54.616;39.786;2023-05-10T03:28:53;100857.19;;;9.45;50.46
49627;BME280;35527;54.616;39.786;2023-05-10T03:31:58;100834.91;;;9.38;50.24
49627;BME280;35527;54.616;39.786;2023-05-10T03:35:10;100846.84;;;9.45;50.44
49627;BME280;35527;54.616;39.786;2023-05-10T03:38:14;100863.97;;;9.51;50.64
49627;BME280;35527;54.616;39.786;2023-05-10T03:41:19;100829.72;;;9.38;51.29
49627;BME280;35527;54.616;39.786;2023-05-10T03:44:23;100859.41;;;9.65;51.71
49627;BME280;35527;54.616;39.786;2023-05-10T03:47:28;100834.53;;;9.59;51.37
49627;BME280;35527;54.616;39.786;2023-05-10T03:50:33;100831.28;;;9.48;51.92
49627;BME280;35527;54.616;39.786;2023-05-10T03:53:37;100857.69;;;9.64;51.71
49627;BME280;35527;54.616;39.786;2023-05-10T03:56:43;100832.28;;;9.87;51.26
49627;BME280;35527;54.616;39.786;2023-05-10T03:59:47;100839.06;;;9.93;50.91
49627;BME280;35527;54.616;39.786;2023-05-10T04:02:52;100810.00;;;9.80;50.58
49627;BME280;35527;54.616;39.786;2023-05-10T04:06:02;100830.91;;;10.13;50.74
49627;BME280;35527;54.616;39.786;2023-05-10T04:09:07;100828.91;;;10.24;50.41
49627;BME280;35527;54.616;39.786;2023-05-10T04:12:14;100855.81;;;10.59;48.77
49627;BME280;35527;54.616;39.786;2023-05-10T04:15:22;100856.34;;;10.73;48.82
49627;BME280;35527;54.616;39.786;2023-05-10T04:18:27;100860.63;;;10.74;49.21
49627;BME280;35527;54.616;39.786;2023-05-10T04:21:30;100849.56;;;10.68;48.78
49627;BME280;35527;54.616;39.786;2023-05-10T04:24:34;100842.72;;;10.65;50.34
49627;BME280;35527;54.616;39.786;2023-05-10T04:27:38;100856.75;;;11.28;49.46
49627;BME280;35527;54.616;39.786;2023-05-10T04:30:41;100847.00;;;13.16;44.18
49627;BME280;35527;54.616;39.786;2023-05-10T04:33:45;100833.69;;;12.72;44.48
49627;BME280;35527;54.616;39.786;2023-05-10T04:37:17;100853.44;;;12.49;44.97
49627;BME280;35527;54.616;39.786;2023-05-10T04:40:20;100848.06;;;12.26;46.51
49627;BME280;35527;54.616;39.786;2023-05-10T04:43:23;100841.59;;;12.11;45.37
49627;BME280;35527;54.616;39.786;2023-05-10T04:46:27;100829.38;;;11.83;46.11
49627;BME280;35527;54.616;39.786;2023-05-10T04:49:32;100857.72;;;11.91;46.63
49627;BME280;35527;54.616;39.786;2023-05-10T04:52:36;100838.69;;;12.50;45.61
49627;BME280;35527;54.616;39.786;2023-05-10T04:55:40;100838.66;;;12.79;44.53
49627;BME280;35527;54.616;39.786;2023-05-10T04:58:43;100848.97;;;13.36;43.90
49627;BME280;35527;54.616;39.786;2023-05-10T05:01:47;100847.06;;;15.24;40.81
49627;BME280;35527;54.616;39.786;2023-05-10T05:04:52;100848.44;;;15.33;38.83
49627;BME280;35527;54.616;39.786;2023-05-10T05:07:54;100830.59;;;14.59;40.25
49627;BME280;35527;54.616;39.786;2023-05-10T05:10:58;100841.03;;;14.59;41.20
49627;BME280;35527;54.616;39.786;2023-05-10T05:14:02;100843.22;;;14.47;41.50
49627;BME280;35527;54.616;39.786;2023-05-10T05:17:05;100816.06;;;14.30;40.86
49627;BME280;35527;54.616;39.786;2023-05-10T05:20:08;100825.19;;;14.18;39.75
49627;BME280;35527;54.616;39.786;2023-05-10T05:23:14;100839.69;;;14.26;39.41
49627;BME280;35527;54.616;39.786;2023-05-10T05:26:17;100834.06;;;14.60;37.74
49627;BME280;35527;54.616;39.786;2023-05-10T05:29:23;100827.19;;;14.57;39.01
49627;BME280;35527;54.616;39.786;2023-05-10T05:32:26;100813.41;;;15.59;38.06
49627;BME280;35527;54.616;39.786;2023-05-10T05:35:29;100831.97;;;18.85;32.46
49627;BME280;35527;54.616;39.786;2023-05-10T05:38:34;100816.97;;;18.41;31.20
49627;BME280;35527;54.616;39.786;2023-05-10T05:41:39;100835.19;;;17.09;33.05
49627;BME280;35527;54.616;39.786;2023-05-10T05:44:43;100827.25;;;16.38;34.38
49627;BME280;35527;54.616;39.786;2023-05-10T05:47:46;100833.81;;;17.37;33.73
49627;BME280;35527;54.616;39.786;2023-05-10T05:50:54;100825.69;;;17.59;32.58
49627;BME280;35527;54.616;39.786;2023-05-10T05:53:57;100816.19;;;17.91;32.49
49627;BME280;35527;54.616;39.786;2023-05-10T05:57:01;100827.44;;;18.41;31.45
49627;BME280;35527;54.616;39.786;2023-05-10T06:00:05;100809.09;;;18.41;31.27
49627;BME280;35527;54.616;39.786;2023-05-10T06:03:16;100823.97;;;18.09;32.29
49627;BME280;35527;54.616;39.786;2023-05-10T06:06:21;100821.69;;;18.50;30.68
49627;BME280;35527;54.616;39.786;2023-05-10T06:09:25;100824.47;;;18.63;30.56
49627;BME280;35527;54.616;39.786;2023-05-10T06:12:29;100813.16;;;19.67;29.94
49627;BME280;35527;54.616;39.786;2023-05-10T06:15:35;100814.25;;;20.20;27.85
49627;BME280;35527;54.616;39.786;2023-05-10T06:18:37;100806.69;;;20.70;26.71
49627;BME280;35527;54.616;39.786;2023-05-10T06:21:42;100779.06;;;21.03;24.35
49627;BME280;35527;54.616;39.786;2023-05-10T06:24:44;100793.88;;;23.26;22.35
49627;BME280;35527;54.616;39.786;2023-05-10T06:27:52;100782.59;;;23.24;21.16
49627;BME280;35527;54.616;39.786;2023-05-10T06:31:00;100785.13;;;21.18;23.03
49627;BME280;35527;54.616;39.786;2023-05-10T06:34:04;100798.34;;;19.66;24.46
49627;BME280;35527;54.616;39.786;2023-05-10T06:37:10;100802.41;;;18.51;25.09
49627;BME280;35527;54.616;39.786;2023-05-10T06:40:17;100771.41;;;17.29;26.03
49627;BME280;35527;54.616;39.786;2023-05-10T06:43:19;100753.28;;;17.42;25.48
49627;BME280;35527;54.616;39.786;2023-05-10T06:46:27;100777.47;;;17.81;24.91
49627;BME280;35527;54.616;39.786;2023-05-10T06:49:30;100790.69;;;17.44;25.54
49627;BME280;35527;54.616;39.786;2023-05-10T06:52:35;100778.34;;;16.96;27.14
49627;BME280;35527;54.616;39.786;2023-05-10T06:55:38;100779.25;;;16.77;26.40
49627;BME280;35527;54.616;39.786;2023-05-10T06:58:44;100782.00;;;16.74;26.93
49627;BME280;35527;54.616;39.786;2023-05-10T07:01:49;100748.28;;;16.68;26.15
49627;BME280;35527;54.616;39.786;2023-05-10T07:04:54;100776.06;;;20.42;22.23
49627;BME280;35527;54.616;39.786;2023-05-10T07:07:58;100773.75;;;21.30;21.08
49627;BME280;35527;54.616;39.786;2023-05-10T07:11:05;100769.38;;;21.93;19.63
49627;BME280;35527;54.616;39.786;2023-05-10T07:14:11;100771.88;;;22.44;18.93
49627;BME280;35527;54.616;39.786;2023-05-10T07:17:14;100771.22;;;24.35;18.65
49627;BME280;35527;54.616;39.786;2023-05-10T07:20:17;100757.16;;;23.68;17.79
49627;BME280;35527;54.616;39.786;2023-05-10T07:23:19;100780.75;;;24.69;17.16
49627;BME280;35527;54.616;39.786;2023-05-10T07:26:23;100755.09;;;25.94;16.72
49627;BME280;35527;54.616;39.786;2023-05-10T07:29:28;100769.88;;;26.57;16.69
49627;BME280;35527;54.616;39.786;2023-05-10T07:32:31;100740.22;;;26.71;16.03
49627;BME280;35527;54.616;39.786;2023-05-10T07:35:34;100762.41;;;26.41;16.21
49627;BME280;35527;54.616;39.786;2023-05-10T07:38:40;100771.16;;;25.93;16.19
49627;BME280;35527;54.616;39.786;2023-05-10T07:41:44;100757.25;;;26.88;15.36
49627;BME280;35527;54.616;39.786;2023-05-10T07:44:47;100759.97;;;24.21;15.63
49627;BME280;35527;54.616;39.786;2023-05-10T07:47:51;100761.56;;;21.42;19.07
49627;BME280;35527;54.616;39.786;2023-05-10T07:50:55;100763.25;;;22.88;18.13
49627;BME280;35527;54.616;39.786;2023-05-10T07:53:58;100727.59;;;23.74;17.35
49627;BME280;35527;54.616;39.786;2023-05-10T07:57:01;100759.31;;;23.97;17.30
49627;BME280;35527;54.616;39.786;2023-05-10T08:00:06;100745.91;;;22.62;17.79
49627;BME280;35527;54.616;39.786;2023-05-10T08:03:16;100747.06;;;20.02;19.62
49627;BME280;35527;54.616;39.786;2023-05-10T08:06:20;100744.38;;;19.61;21.42
49627;BME280;35527;54.616;39.786;2023-05-10T08:09:24;100737.22;;;21.38;19.44
49627;BME280;35527;54.616;39.786;2023-05-10T08:12:27;100736.97;;;21.15;19.75
49627;BME280;35527;54.616;39.786;2023-05-10T08:15:30;100715.94;;;23.66;18.05
49627;BME280;35527;54.616;39.786;2023-05-10T08:18:37;100733.94;;;24.91;16.63
49627;BME280;35527;54.616;39.786;2023-05-10T08:21:39;100751.06;;;26.10;15.93
49627;BME280;35527;54.616;39.786;2023-05-10T08:24:45;100725.25;;;26.80;15.42
49627;BME280;35527;54.616;39.786;2023-05-10T08:27:50;100730.25;;;27.02;14.89
49627;BME280;35527;54.616;39.786;2023-05-10T08:30:52;100738.63;;;27.82;14.24
49627;BME280;35527;54.616;39.786;2023-05-10T08:33:55;100720.56;;;28.21;13.57
49627;BME280;35527;54.616;39.786;2023-05-10T08:36:59;100721.34;;;27.31;14.06
49627;BME280;35527;54.616;39.786;2023-05-10T08:40:03;100706.41;;;26.73;15.00
49627;BME280;35527;54.616;39.786;2023-05-10T08:43:08;100704.13;;;26.78;14.41
49627;BME280;35527;54.616;39.786;2023-05-10T08:46:15;100711.13;;;26.69;15.08
49627;BME280;35527;54.616;39.786;2023-05-10T08:49:21;100660.09;;;27.23;14.43
49627;BME280;35527;54.616;39.786;2023-05-10T08:52:27;100691.69;;;25.91;14.80
49627;BME280;35527;54.616;39.786;2023-05-10T08:55:33;100675.91;;;25.90;15.52
49627;BME280;35527;54.616;39.786;2023-05-10T08:58:39;100686.13;;;25.94;15.60
49627;BME280;35527;54.616;39.786;2023-05-10T09:01:44;100681.59;;;24.53;15.91
49627;BME280;35527;54.616;39.786;2023-05-10T09:04:54;100666.88;;;25.52;16.21
49627;BME280;35527;54.616;39.786;2023-05-10T09:07:57;100681.81;;;26.42;14.65
49627;BME280;35527;54.616;39.786;2023-05-10T09:11:03;100675.06;;;25.89;15.48
49627;BME280;35527;54.616;39.786;2023-05-10T09:14:08;100665.91;;;25.12;15.44
49627;BME280;35527;54.616;39.786;2023-05-10T09:17:14;100656.47;;;25.20;14.95
49627;BME280;35527;54.616;39.786;2023-05-10T09:20:17;100655.34;;;25.22;15.65
49627;BME280;35527;54.616;39.786;2023-05-10T09:23:21;100653.38;;;25.65;16.14
49627;BME280;35527;54.616;39.786;2023-05-10T09:26:24;100661.66;;;25.31;15.75
49627;BME280;35527;54.616;39.786;2023-05-10T09:29:41;100634.28;;;24.90;16.50
49627;BME280;35527;54.616;39.786;2023-05-10T09:32:44;100660.66;;;23.85;17.02
49627;BME280;35527;54.616;39.786;2023-05-10T09:35:51;100645.00;;;23.38;17.70
49627;BME280;35527;54.616;39.786;2023-05-10T09:38:55;100641.94;;;21.57;19.12
49627;BME280;35527;54.616;39.786;2023-05-10T09:42:08;100632.53;;;20.65;20.16
49627;BME280;35527;54.616;39.786;2023-05-10T09:45:11;100650.13;;;19.56;20.71
49627;BME280;35527;54.616;39.786;2023-05-10T09:48:13;100626.72;;;19.24;21.25
49627;BME280;35527;54.616;39.786;2023-05-10T09:54:27;100642.25;;;18.10;21.81
49627;BME280;35527;54.616;39.786;2023-05-10T09:57:31;100647.19;;;18.00;22.03
49627;BME280;35527;54.616;39.786;2023-05-10T10:00:39;100617.53;;;19.03;21.09
49627;BME280;35527;54.616;39.786;2023-05-10T10:03:42;100613.84;;;19.90;19.95
49627;BME280;35527;54.616;39.786;2023-05-10T10:06:59;100624.88;;;20.22;19.30
49627;BME280;35527;54.616;39.786;2023-05-10T10:10:07;100600.88;;;20.92;19.24
49627;BME280;35527;54.616;39.786;2023-05-10T10:13:14;100606.13;;;20.14;18.59
49627;BME280;35527;54.616;39.786;2023-05-10T10:16:19;100611.00;;;20.45;19.13
49627;BME280;35527;54.616;39.786;2023-05-10T10:19:26;100580.09;;;21.13;19.17
49627;BME280;35527;54.616;39.786;2023-05-10T10:22:31;100596.59;;;21.65;18.84
49627;BME280;35527;54.616;39.786;2023-05-10T10:25:35;100597.72;;;21.73;18.29
49627;BME280;35527;54.616;39.786;2023-05-10T10:35:39;100591.91;;;21.31;19.43
49627;BME280;35527;54.616;39.786;2023-05-10T10:41:59;100608.03;;;19.57;20.41
49627;BME280;35527;54.616;39.786;2023-05-10T10:45:12;100590.03;;;18.81;20.66
49627;BME280;35527;54.616;39.786;2023-05-10T10:48:22;100574.28;;;18.37;22.14
49627;BME280;35527;54.616;39.786;2023-05-10T10:51:28;100586.91;;;19.18;20.95
49627;BME280;35527;54.616;39.786;2023-05-10T10:54:35;100582.94;;;19.80;19.60
49627;BME280;35527;54.616;39.786;2023-05-10T11:00:45;100579.28;;;19.96;20.28
49627;BME280;35527;54.616;39.786;2023-05-10T11:07:18;100548.41;;;19.04;20.48
49627;BME280;35527;54.616;39.786;2023-05-10T11:10:27;100569.50;;;18.74;21.14
49627;BME280;35527;54.616;39.786;2023-05-10T11:16:43;100555.09;;;17.76;22.23
49627;BME280;35527;54.616;39.786;2023-05-10T11:20:13;100541.69;;;17.66;22.36
49627;BME280;35527;54.616;39.786;2023-05-10T11:23:23;100561.25;;;18.80;22.66
49627;BME280;35527;54.616;39.786;2023-05-10T11:26:34;100547.34;;;19.48;21.13
49627;BME280;35527;54.616;39.786;2023-05-10T11:29:38;100546.25;;;19.52;20.96
49627;BME280;35527;54.616;39.786;2023-05-10T11:32:41;100551.53;;;19.92;20.22
49627;BME280;35527;54.616;39.786;2023-05-10T11:35:46;100532.84;;;19.42;19.94
49627;BME280;35527;54.616;39.786;2023-05-10T11:38:51;100528.06;;;19.07;20.47
49627;BME280;35527;54.616;39.786;2023-05-10T11:41:56;100531.91;;;19.43;20.45
49627;BME280;35527;54.616;39.786;2023-05-10T11:45:00;100503.03;;;19.70;20.55
49627;BME280;35527;54.616;39.786;2023-05-10T11:48:05;100506.44;;;19.85;20.25
49627;BME280;35527;54.616;39.786;2023-05-10T11:51:10;100511.75;;;20.23;20.64
49627;BME280;35527;54.616;39.786;2023-05-10T11:54:13;100498.53;;;19.72;20.03
49627;BME280;35527;54.616;39.786;2023-05-10T11:57:18;100486.31;;;19.17;21.98
49627;BME280;35527;54.616;39.786;2023-05-10T12:00:25;100515.16;;;18.90;21.51
49627;BME280;35527;54.616;39.786;2023-05-10T12:03:28;100501.28;;;18.45;22.05
49627;BME280;35527;54.616;39.786;2023-05-10T12:06:37;100505.41;;;18.20;22.30
49627;BME280;35527;54.616;39.786;2023-05-10T12:10:09;100508.44;;;17.98;23.17
49627;BME280;35527;54.616;39.786;2023-05-10T12:13:19;100494.47;;;17.68;23.02
49627;BME280;35527;54.616;39.786;2023-05-10T12:16:24;100495.91;;;17.73;21.90
49627;BME280;35527;54.616;39.786;2023-05-10T12:19:27;100493.91;;;18.23;21.31
49627;BME280;35527;54.616;39.786;2023-05-10T12:22:33;100483.31;;;18.24;22.83
49627;BME280;35527;54.616;39.786;2023-05-10T12:25:38;100498.03;;;17.97;23.61
49627;BME280;35527;54.616;39.786;2023-05-10T12:28:44;100482.50;;;17.64;23.04
49627;BME280;35527;54.616;39.786;2023-05-10T12:31:52;100481.75;;;17.62;23.32
49627;BME280;35527;54.616;39.786;2023-05-10T12:34:58;100487.56;;;17.67;23.61
49627;BME280;35527;54.616;39.786;2023-05-10T12:38:44;100474.00;;;17.90;23.27
49627;BME280;35527;54.616;39.786;2023-05-10T12:41:46;100485.88;;;17.96;22.91
49627;BME280;35527;54.616;39.786;2023-05-10T12:44:55;100477.44;;;17.61;23.36
49627;BME280;35527;54.616;39.786;2023-05-10T12:47:58;100468.00;;;17.58;23.29
49627;BME280;35527;54.616;39.786;2023-05-10T12:51:04;100472.53;;;18.00;22.14
49627;BME280;35527;54.616;39.786;2023-05-10T12:54:08;100456.28;;;17.79;22.85
49627;BME280;35527;54.616;39.786;2023-05-10T12:57:13;100467.69;;;18.09;22.58
49627;BME280;35527;54.616;39.786;2023-05-10T13:00:16;100441.94;;;18.58;22.19
49627;BME280;35527;54.616;39.786;2023-05-10T13:03:29;100469.09;;;19.13;21.30
49627;BME280;35527;54.616;39.786;2023-05-10T13:06:56;100458.41;;;18.89;21.27
49627;BME280;35527;54.616;39.786;2023-05-10T13:10:05;100460.09;;;18.33;21.20
49627;BME280;35527;54.616;39.786;2023-05-10T13:13:08;100419.38;;;17.68;22.56
49627;BME280;35527;54.616;39.786;2023-05-10T13:16:13;100446.47;;;17.53;23.26
49627;BME280;35527;54.616;39.786;2023-05-10T13:19:16;100467.63;;;17.34;23.58
49627;BME280;35527;54.616;39.786;2023-05-10T13:22:20;100459.03;;;17.16;23.61
49627;BME280;35527;54.616;39.786;2023-05-10T13:25:29;100441.66;;;16.99;24.00
49627;BME280;35527;54.616;39.786;2023-05-10T13:28:33;100449.50;;;16.99;24.47
49627;BME280;35527;54.616;39.786;2023-05-10T13:31:37;100459.97;;;16.99;24.83
49627;BME280;35527;54.616;39.786;2023-05-10T13:34:42;100459.72;;;16.88;25.58
49627;BME280;35527;54.616;39.786;2023-05-10T13:37:46;100445.84;;;16.70;25.37
49627;BME280;35527;54.616;39.786;2023-05-10T13:40:49;100449.72;;;16.63;24.89
49627;BME280;35527;54.616;39.786;2023-05-10T13:43:55;100433.03;;;16.65;25.61
49627;BME280;35527;54.616;39.786;2023-05-10T13:47:00;100427.88;;;16.64;25.21
49627;BME280;35527;54.616;39.786;2023-05-10T13:50:06;100442.44;;;17.01;23.91
49627;BME280;35527;54.616;39.786;2023-05-10T13:53:12;100432.75;;;17.33;23.30
49627;BME280;35527;54.616;39.786;2023-05-10T13:56:39;100426.16;;;17.72;23.66
49627;BME280;35527;54.616;39.786;2023-05-10T13:59:43;100427.44;;;17.95;23.26
49627;BME280;35527;54.616;39.786;2023-05-10T14:02:51;100404.19;;;17.75;22.79
49627;BME280;35527;54.616;39.786;2023-05-10T14:05:54;100383.09;;;17.78;23.07
49627;BME280;35527;54.616;39.786;2023-05-10T14:08:58;100409.66;;;17.56;22.52
49627;BME280;35527;54.616;39.786;2023-05-10T14:12:01;100434.63;;;17.31;22.74
49627;BME280;35527;54.616;39.786;2023-05-10T14:15:07;100436.78;;;17.09;23.25
49627;BME280;35527;54.616;39.786;2023-05-10T14:18:13;100428.84;;;16.79;24.00
49627;BME280;35527;54.616;39.786;2023-05-10T14:21:17;100414.56;;;16.53;25.02
49627;BME280;35527;54.616;39.786;2023-05-10T14:24:19;100428.22;;;16.58;24.86
49627;BME280;35527;54.616;39.786;2023-05-10T14:27:23;100404.00;;;16.38;24.72
49627;BME280;35527;54.616;39.786;2023-05-10T14:30:26;100421.69;;;16.33;24.12
49627;BME280;35527;54.616;39.786;2023-05-10T14:33:29;100405.16;;;16.17;24.54
49627;BME280;35527;54.616;39.786;2023-05-10T14:36:33;100402.13;;;16.25;24.90
49627;BME280;35527;54.616;39.786;2023-05-10T14:39:40;100417.50;;;16.47;24.48
49627;BME280;35527;54.616;39.786;2023-05-10T14:42:47;100414.72;;;16.50;24.44
49627;BME280;35527;54.616;39.786;2023-05-10T14:45:53;100408.94;;;16.76;24.74
49627;BME280;35527;54.616;39.786;2023-05-10T14:48:57;100412.16;;;16.81;23.58
49627;BME280;35527;54.616;39.786;2023-05-10T14:52:01;100412.09;;;16.83;24.37
49627;BME280;35527;54.616;39.786;2023-05-10T14:56:01;100411.97;;;16.84;23.68
49627;BME280;35527;54.616;39.786;2023-05-10T14:59:05;100393.69;;;16.84;24.47
49627;BME280;35527;54.616;39.786;2023-05-10T15:02:10;100394.88;;;16.79;25.01
49627;BME280;35527;54.616;39.786;2023-05-10T15:05:15;100400.41;;;16.57;24.27
49627;BME280;35527;54.616;39.786;2023-05-10T15:08:18;100392.47;;;16.42;24.33
49627;BME280;35527;54.616;39.786;2023-05-10T15:11:27;100397.53;;;16.46;24.76
49627;BME280;35527;54.616;39.786;2023-05-10T15:14:32;100407.38;;;16.56;24.26
49627;BME280;35527;54.616;39.786;2023-05-10T15:17:40;100402.34;;;16.53;24.00
49627;BME280;35527;54.616;39.786;2023-05-10T15:20:45;100400.56;;;16.54;24.14
49627;BME280;35527;54.616;39.786;2023-05-10T15:23:49;100398.72;;;16.56;25.18
49627;BME280;35527;54.616;39.786;2023-05-10T15:26:55;100407.13;;;16.45;24.75
49627;BME280;35527;54.616;39.786;2023-05-10T15:29:59;100397.28;;;16.34;25.05
49627;BME280;35527;54.616;39.786;2023-05-10T15:33:02;100397.84;;;16.24;25.16
49627;BME280;35527;54.616;39.786;2023-05-10T15:36:08;100379.69;;;16.05;25.12
49627;BME280;35527;54.616;39.786;2023-05-10T15:39:13;100396.88;;;16.09;25.50
49627;BME280;35527;54.616;39.786;2023-05-10T15:42:23;100393.28;;;16.11;25.69
49627;BME280;35527;54.616;39.786;2023-05-10T15:45:25;100385.84;;;16.04;25.09
49627;BME280;35527;54.616;39.786;2023-05-10T15:48:34;100393.28;;;16.11;25.19
49627;BME280;35527;54.616;39.786;2023-05-10T15:51:39;100399.50;;;16.09;25.52
49627;BME280;35527;54.616;39.786;2023-05-10T15:54:47;100401.06;;;15.95;25.86
49627;BME280;35527;54.616;39.786;2023-05-10T15:57:49;100367.53;;;15.70;25.88
49627;BME280;35527;54.616;39.786;2023-05-10T16:00:54;100400.75;;;15.67;26.85
49627;BME280;35527;54.616;39.786;2023-05-10T16:03:59;100398.00;;;15.52;26.87
49627;BME280;35527;54.616;39.786;2023-05-10T16:07:02;100396.31;;;15.34;26.94
49627;BME280;35527;54.616;39.786;2023-05-10T16:10:05;100395.91;;;15.24;27.33
49627;BME280;35527;54.616;39.786;2023-05-10T16:13:09;100407.41;;;15.20;27.86
49627;BME280;35527;54.616;39.786;2023-05-10T16:16:14;100390.59;;;15.08;28.14
49627;BME280;35527;54.616;39.786;2023-05-10T16:19:19;100392.22;;;15.11;28.44
49627;BME280;35527;54.616;39.786;2023-05-10T16:22:24;100389.13;;;15.03;28.25
49627;BME280;35527;54.616;39.786;2023-05-10T16:25:31;100390.13;;;15.00;29.25
49627;BME280;35527;54.616;39.786;2023-05-10T16:28:34;100396.69;;;14.90;29.03
49627;BME280;35527;54.616;39.786;2023-05-10T16:31:38;100391.91;;;14.81;29.14
49627;BME280;35527;54.616;39.786;2023-05-10T16:34:40;100365.75;;;14.65;29.57
49627;BME280;35527;54.616;39.786;2023-05-10T16:37:49;100395.50;;;14.78;30.04
49627;BME280;35527;54.616;39.786;2023-05-10T16:40:53;100388.03;;;14.71;30.19
49627;BME280;35527;54.616;39.786;2023-05-10T16:44:00;100388.41;;;14.63;30.46